createdAt,value
2017-11-09T00:00:33.930Z,7.70
2017-11-09T00:03:01.518Z,7.70
2017-11-09T00:05:34.859Z,7.70
2017-11-09T00:08:02.466Z,7.70
2017-11-09T00:10:30.075Z,7.70
2017-11-09T00:12:58.401Z,7.70
2017-11-09T00:15:25.977Z,7.70
2017-11-09T00:17:53.581Z,7.70
2017-11-09T00:20:21.165Z,7.70
2017-11-09T00:22:48.766Z,7.70
2017-11-09T00:25:16.356Z,7.70
2017-11-09T00:27:44.743Z,7.70
2017-11-09T00:30:13.128Z,7.70
2017-11-09T00:32:41.501Z,7.70
2017-11-09T00:35:10.184Z,7.70
2017-11-09T00:37:38.664Z,7.70
2017-11-09T00:40:06.229Z,7.60
2017-11-09T00:42:34.585Z,7.70
2017-11-09T00:45:02.271Z,7.60
2017-11-09T00:47:29.877Z,7.60
2017-11-09T00:49:57.661Z,7.70
2017-11-09T00:52:25.273Z,7.70
2017-11-09T00:54:53.687Z,7.70
2017-11-09T00:57:21.285Z,7.70
2017-11-09T00:59:48.879Z,7.70
2017-11-09T01:02:17.237Z,7.70
2017-11-09T01:04:44.823Z,7.70
2017-11-09T01:07:13.196Z,7.70
2017-11-09T01:09:40.772Z,7.70
2017-11-09T01:12:09.447Z,7.70
2017-11-09T01:14:37.024Z,7.70
2017-11-09T01:17:05.467Z,7.70
2017-11-09T01:19:33.052Z,7.70
2017-11-09T01:22:00.644Z,7.70
2017-11-09T01:24:28.271Z,7.70
2017-11-09T01:26:56.607Z,7.70
2017-11-09T01:29:24.203Z,7.70
2017-11-09T01:31:52.576Z,7.70
2017-11-09T01:34:20.161Z,7.60
2017-11-09T01:36:47.814Z,7.70
2017-11-09T01:39:15.421Z,7.70
2017-11-09T01:41:43.021Z,7.60
2017-11-09T01:44:10.641Z,7.70
2017-11-09T01:46:38.984Z,7.70
2017-11-09T01:49:06.552Z,7.70
2017-11-09T01:51:34.158Z,7.70
2017-11-09T01:54:01.743Z,7.70
2017-11-09T01:56:29.363Z,7.70
2017-11-09T01:58:57.736Z,7.80
2017-11-09T02:01:26.080Z,7.80
2017-11-09T02:03:53.687Z,7.80
2017-11-09T02:06:21.265Z,7.80
2017-11-09T02:08:48.962Z,7.80
2017-11-09T02:11:16.585Z,7.80
2017-11-09T02:13:44.942Z,7.80
2017-11-09T02:16:13.319Z,7.80
2017-11-09T02:18:40.904Z,7.80
2017-11-09T02:21:08.491Z,7.80
2017-11-09T02:23:36.089Z,7.80
2017-11-09T02:26:03.671Z,7.80
2017-11-09T02:28:32.032Z,7.80
2017-11-09T02:30:59.601Z,7.80
2017-11-09T02:33:27.230Z,7.80
2017-11-09T02:35:54.827Z,7.80
2017-11-09T02:38:22.410Z,7.80
2017-11-09T02:40:50.756Z,7.80
2017-11-09T02:43:18.332Z,7.80
2017-11-09T02:45:46.712Z,7.70
2017-11-09T02:48:14.280Z,7.80
2017-11-09T02:50:41.862Z,7.70
2017-11-09T02:53:10.228Z,7.80
2017-11-09T02:55:38.706Z,7.80
2017-11-09T02:58:06.283Z,7.80
2017-11-09T03:00:34.615Z,7.80
2017-11-09T03:03:02.229Z,7.80
2017-11-09T03:05:30.590Z,7.80
2017-11-09T03:07:58.352Z,7.80
2017-11-09T03:10:26.688Z,7.80
2017-11-09T03:12:54.276Z,7.80
2017-11-09T03:15:21.849Z,7.80
2017-11-09T03:17:49.467Z,7.80
2017-11-09T03:20:17.076Z,7.80
2017-11-09T03:22:44.658Z,7.80
2017-11-09T03:25:13.169Z,7.80
2017-11-09T03:27:40.749Z,7.80
2017-11-09T03:30:08.361Z,7.80
2017-11-09T03:32:35.977Z,7.80
2017-11-09T03:35:03.569Z,7.80
2017-11-09T03:37:31.175Z,7.80
2017-11-09T03:39:59.514Z,7.80
2017-11-09T03:42:27.101Z,7.80
2017-11-09T03:44:55.454Z,7.80
2017-11-09T03:47:23.064Z,7.70
2017-11-09T03:49:50.715Z,7.80
2017-11-09T03:52:19.076Z,7.80
2017-11-09T03:54:46.674Z,7.80
2017-11-09T03:57:14.250Z,7.80
2017-11-09T03:59:41.840Z,7.70
2017-11-09T04:02:09.471Z,7.70
2017-11-09T04:04:37.063Z,7.70
2017-11-09T04:07:04.639Z,7.80
2017-11-09T04:09:32.231Z,7.80
2017-11-09T04:12:00.579Z,7.80
2017-11-09T04:14:28.170Z,7.70
2017-11-09T04:16:56.667Z,7.70
2017-11-09T04:19:25.015Z,7.70
2017-11-09T04:21:52.595Z,7.70
2017-11-09T04:24:20.199Z,7.80
2017-11-09T04:26:47.805Z,7.80
2017-11-09T04:29:15.376Z,7.80
2017-11-09T04:31:42.945Z,7.70
2017-11-09T04:34:11.322Z,7.70
2017-11-09T04:36:39.669Z,7.80
2017-11-09T04:39:07.280Z,7.80
2017-11-09T04:41:35.647Z,7.70
2017-11-09T04:44:03.996Z,7.80
2017-11-09T04:46:31.612Z,7.80
2017-11-09T04:48:59.961Z,7.70
2017-11-09T04:51:27.536Z,7.80
2017-11-09T04:53:55.889Z,7.70
2017-11-09T04:56:23.465Z,7.80
2017-11-09T04:58:51.105Z,7.70
2017-11-09T05:01:18.688Z,7.70
2017-11-09T05:03:46.267Z,7.70
2017-11-09T05:06:14.629Z,7.70
2017-11-09T05:08:42.232Z,7.70
2017-11-09T05:11:09.848Z,7.70
2017-11-09T05:13:37.447Z,7.70
2017-11-09T05:16:05.961Z,7.70
2017-11-09T05:18:33.608Z,7.70
2017-11-09T05:21:01.375Z,7.70
2017-11-09T05:23:28.970Z,7.70
2017-11-09T05:25:56.571Z,7.70
2017-11-09T05:28:24.926Z,7.70
2017-11-09T05:30:52.538Z,7.70
2017-11-09T05:33:20.272Z,7.70
2017-11-09T05:35:47.896Z,7.70
2017-11-09T05:38:15.491Z,7.70
2017-11-09T05:40:43.086Z,7.70
2017-11-09T05:43:10.852Z,7.70
2017-11-09T05:45:39.225Z,7.60
2017-11-09T05:48:07.591Z,7.60
2017-11-09T05:50:35.420Z,7.60
2017-11-09T05:53:03.003Z,7.60
2017-11-09T05:55:30.563Z,7.60
2017-11-09T05:57:58.159Z,7.60
2017-11-09T06:00:26.604Z,7.60
2017-11-09T06:02:54.291Z,7.60
2017-11-09T06:05:21.867Z,7.50
2017-11-09T06:07:50.488Z,7.50
2017-11-09T06:10:18.115Z,7.50
2017-11-09T06:12:46.489Z,7.50
2017-11-09T06:15:14.840Z,7.50
2017-11-09T06:17:42.434Z,7.50
2017-11-09T06:20:10.027Z,7.50
2017-11-09T06:22:37.787Z,7.50
2017-11-09T06:25:05.366Z,7.50
2017-11-09T06:27:32.969Z,7.50
2017-11-09T06:30:00.550Z,7.60
2017-11-09T06:32:28.163Z,7.60
2017-11-09T06:34:55.751Z,7.60
2017-11-09T06:37:23.377Z,7.60
2017-11-09T06:39:50.984Z,7.60
2017-11-09T06:42:18.567Z,7.60
2017-11-09T06:44:46.941Z,7.70
2017-11-09T06:47:14.584Z,7.70
2017-11-09T06:49:43.821Z,7.80
2017-11-09T06:52:12.191Z,7.80
2017-11-09T06:54:40.538Z,7.80
2017-11-09T06:57:08.162Z,7.80
2017-11-09T06:59:35.743Z,7.80
2017-11-09T07:02:03.315Z,7.90
2017-11-09T07:04:30.915Z,7.90
2017-11-09T07:06:58.503Z,7.80
2017-11-09T07:09:26.232Z,7.90
2017-11-09T07:11:53.878Z,7.90
2017-11-09T07:14:21.460Z,7.90
2017-11-09T07:16:49.025Z,7.90
2017-11-09T07:19:16.598Z,7.90
2017-11-09T07:21:45.021Z,7.90
2017-11-09T07:24:12.605Z,7.90
2017-11-09T07:26:40.171Z,7.90
2017-11-09T07:29:07.738Z,7.90
2017-11-09T07:31:35.343Z,7.90
2017-11-09T07:34:03.697Z,7.90
2017-11-09T07:36:31.300Z,7.90
2017-11-09T07:38:58.909Z,7.90
2017-11-09T07:41:26.673Z,7.90
2017-11-09T07:43:54.392Z,7.90
2017-11-09T07:46:33.660Z,7.90
2017-11-09T07:49:01.280Z,7.90
2017-11-09T07:51:29.008Z,7.90
2017-11-09T07:53:56.610Z,7.90
2017-11-09T07:56:24.307Z,7.90
2017-11-09T07:58:51.881Z,7.90
2017-11-09T08:01:19.479Z,7.90
2017-11-09T08:03:47.184Z,7.90
2017-11-09T08:06:14.817Z,7.90
2017-11-09T08:08:43.217Z,7.90
2017-11-09T08:11:10.918Z,7.90
2017-11-09T08:13:38.540Z,8.00
2017-11-09T08:16:06.900Z,8.00
2017-11-09T08:18:35.258Z,8.00
2017-11-09T08:21:02.928Z,7.90
2017-11-09T08:23:30.538Z,8.00
2017-11-09T08:26:00.029Z,8.10
2017-11-09T08:28:31.561Z,8.10
2017-11-09T08:31:04.084Z,8.10
2017-11-09T08:33:32.891Z,8.10
2017-11-09T08:36:00.472Z,8.20
2017-11-09T08:38:28.064Z,8.20
2017-11-09T08:40:56.432Z,8.20
2017-11-09T08:43:24.062Z,8.20
2017-11-09T08:45:51.712Z,8.20
2017-11-09T08:48:19.327Z,8.20
2017-11-09T08:50:46.913Z,8.20
2017-11-09T08:53:15.257Z,8.20
2017-11-09T08:55:42.824Z,8.20
2017-11-09T08:58:10.448Z,8.30
2017-11-09T09:00:38.019Z,8.30
2017-11-09T09:03:05.639Z,8.30
2017-11-09T09:05:33.999Z,8.20
2017-11-09T09:08:01.592Z,8.20
2017-11-09T09:10:29.954Z,8.30
2017-11-09T09:12:58.308Z,8.30
2017-11-09T09:15:26.813Z,8.30
2017-11-09T09:17:54.418Z,8.30
2017-11-09T09:20:22.691Z,8.30
2017-11-09T09:22:50.296Z,8.40
2017-11-09T09:25:23.547Z,8.40
2017-11-09T09:27:51.124Z,8.40
2017-11-09T09:30:28.624Z,8.40
2017-11-09T09:33:00.286Z,8.40
2017-11-09T09:35:34.843Z,8.40
2017-11-09T09:38:20.920Z,8.40
2017-11-09T09:40:48.596Z,8.40
2017-11-09T09:43:16.188Z,8.60
2017-11-09T09:45:44.540Z,8.80
2017-11-09T09:48:12.169Z,8.80
2017-11-09T09:50:39.742Z,9.00
2017-11-09T09:53:07.352Z,9.20
2017-11-09T09:55:35.697Z,9.30
2017-11-09T09:58:03.312Z,9.30
2017-11-09T10:00:31.666Z,9.30
2017-11-09T10:02:59.241Z,9.30
2017-11-09T10:05:27.667Z,9.10
2017-11-09T10:07:55.288Z,9.10
2017-11-09T10:10:23.690Z,9.10
2017-11-09T10:12:51.262Z,9.10
2017-11-09T10:15:18.909Z,9.30
2017-11-09T10:17:46.496Z,9.30
2017-11-09T10:20:14.093Z,9.50
2017-11-09T10:22:41.672Z,9.50
2017-11-09T10:25:09.396Z,9.40
2017-11-09T10:27:36.963Z,9.40
2017-11-09T10:30:04.561Z,9.60
2017-11-09T10:32:33.034Z,9.70
2017-11-09T10:35:07.881Z,9.90
2017-11-09T10:37:36.231Z,10.00
2017-11-09T10:40:03.811Z,10.00
2017-11-09T10:42:31.401Z,9.90
2017-11-09T10:44:59.035Z,9.80
2017-11-09T10:47:26.608Z,9.60
2017-11-09T10:49:55.009Z,9.40
2017-11-09T10:52:23.396Z,9.40
2017-11-09T10:54:51.029Z,9.40
2017-11-09T10:57:18.629Z,9.40
2017-11-09T10:59:46.213Z,9.30
2017-11-09T11:02:16.291Z,9.30
2017-11-09T11:04:44.701Z,9.50
2017-11-09T11:07:12.367Z,9.50
2017-11-09T11:09:40.012Z,9.40
2017-11-09T11:12:08.410Z,9.60
2017-11-09T11:14:36.076Z,9.60
2017-11-09T11:17:04.613Z,9.70
2017-11-09T11:19:32.199Z,9.70
2017-11-09T11:22:00.600Z,9.80
2017-11-09T11:24:28.200Z,9.70
2017-11-09T11:26:55.788Z,9.90
2017-11-09T11:29:24.180Z,9.60
2017-11-09T11:31:51.774Z,9.50
2017-11-09T11:34:22.081Z,9.40
2017-11-09T11:36:50.111Z,9.30
2017-11-09T11:39:17.715Z,9.30
2017-11-09T11:41:45.295Z,9.30
2017-11-09T11:44:13.771Z,9.50
2017-11-09T11:46:41.529Z,9.50
2017-11-09T11:49:09.900Z,10.00
2017-11-09T11:51:37.509Z,10.00
2017-11-09T11:54:05.178Z,10.30
2017-11-09T11:56:32.797Z,10.60
2017-11-09T11:59:01.176Z,10.60
2017-11-09T12:01:29.616Z,10.60
2017-11-09T12:03:57.208Z,10.40
2017-11-09T12:06:25.565Z,10.30
2017-11-09T12:08:53.189Z,10.30
2017-11-09T12:11:20.800Z,10.20
2017-11-09T12:13:48.422Z,10.00
2017-11-09T12:16:16.011Z,10.20
2017-11-09T12:18:43.613Z,10.10
2017-11-09T12:21:11.191Z,9.80
2017-11-09T12:23:38.810Z,9.80
2017-11-09T12:26:06.402Z,10.00
2017-11-09T12:28:33.995Z,10.10
2017-11-09T12:31:03.372Z,10.10
2017-11-09T12:33:31.109Z,9.90
2017-11-09T12:36:00.443Z,10.00
2017-11-09T12:38:28.039Z,10.00
2017-11-09T12:40:55.666Z,10.10
2017-11-09T12:43:23.283Z,10.20
2017-11-09T12:45:51.788Z,10.40
2017-11-09T12:48:20.142Z,10.30
2017-11-09T12:50:47.750Z,10.30
2017-11-09T12:53:15.333Z,10.30
2017-11-09T12:55:42.907Z,10.50
2017-11-09T12:58:10.475Z,10.80
2017-11-09T13:00:38.182Z,10.90
2017-11-09T13:03:06.544Z,10.30
2017-11-09T13:05:34.896Z,10.10
2017-11-09T13:08:02.550Z,10.10
2017-11-09T13:10:30.132Z,10.20
2017-11-09T13:12:57.729Z,10.10
2017-11-09T13:15:25.318Z,10.20
2017-11-09T13:17:52.944Z,10.30
2017-11-09T13:20:21.314Z,11.20
2017-11-09T13:22:49.663Z,11.50
2017-11-09T13:25:17.252Z,11.50
2017-11-09T13:27:44.848Z,11.30
2017-11-09T13:30:12.424Z,11.10
2017-11-09T13:32:42.039Z,10.90
2017-11-09T13:35:09.785Z,10.50
2017-11-09T13:37:37.589Z,10.90
2017-11-09T13:40:05.240Z,10.90
2017-11-09T13:42:32.874Z,10.70
2017-11-09T13:45:00.666Z,10.50
2017-11-09T13:47:28.257Z,10.30
2017-11-09T13:49:55.868Z,10.00
2017-11-09T13:52:23.659Z,9.90
2017-11-09T13:54:55.234Z,9.80
2017-11-09T13:57:22.921Z,9.90
2017-11-09T13:59:50.728Z,9.80
2017-11-09T14:02:18.459Z,9.80
2017-11-09T14:04:46.914Z,9.70
2017-11-09T14:07:14.507Z,9.70
2017-11-09T14:09:42.168Z,9.60
2017-11-09T14:12:10.457Z,9.60
2017-11-09T14:14:39.440Z,9.50
2017-11-09T14:17:07.433Z,9.50
2017-11-09T14:19:35.082Z,9.40
2017-11-09T14:22:02.658Z,9.40
2017-11-09T14:24:30.257Z,9.50
2017-11-09T14:26:57.932Z,9.60
2017-11-09T14:29:26.376Z,9.60
2017-11-09T14:31:54.733Z,9.60
2017-11-09T14:34:22.332Z,9.50
2017-11-09T14:36:49.911Z,9.50
2017-11-09T14:39:17.524Z,9.30
2017-11-09T14:41:45.849Z,9.20
2017-11-09T14:44:13.425Z,9.10
2017-11-09T14:46:44.504Z,9.00
2017-11-09T14:49:12.097Z,9.00
2017-11-09T14:51:39.693Z,8.90
2017-11-09T14:54:08.074Z,9.00
2017-11-09T14:56:36.402Z,9.00
2017-11-09T14:59:04.117Z,8.90
2017-11-09T15:01:31.695Z,8.90
2017-11-09T15:04:00.080Z,8.90
2017-11-09T15:06:27.947Z,8.90
2017-11-09T15:08:55.736Z,8.90
2017-11-09T15:11:23.361Z,8.80
2017-11-09T15:13:50.939Z,8.60
2017-11-09T15:16:18.522Z,8.50
2017-11-09T15:18:47.957Z,8.40
2017-11-09T15:21:15.555Z,8.20
2017-11-09T15:23:43.145Z,8.10
2017-11-09T15:26:10.857Z,8.00
2017-11-09T15:28:39.347Z,7.90
2017-11-09T15:31:07.001Z,7.80
2017-11-09T15:33:34.610Z,7.90
2017-11-09T15:36:07.885Z,8.00
2017-11-09T15:38:36.205Z,8.00
2017-11-09T15:41:03.812Z,8.00
2017-11-09T15:43:32.249Z,7.90
2017-11-09T15:45:59.847Z,7.90
2017-11-09T15:48:27.455Z,8.00
2017-11-09T15:50:55.084Z,8.00
2017-11-09T15:53:22.783Z,8.00
2017-11-09T15:55:50.355Z,8.10
2017-11-09T15:58:17.941Z,8.10
2017-11-09T16:00:45.535Z,8.00
2017-11-09T16:03:14.021Z,8.00
2017-11-09T16:05:41.603Z,8.00
2017-11-09T16:08:10.054Z,7.80
2017-11-09T16:10:37.730Z,7.80
2017-11-09T16:13:05.343Z,7.80
2017-11-09T16:15:32.969Z,7.80
2017-11-09T16:18:00.580Z,7.70
2017-11-09T16:20:28.185Z,7.60
2017-11-09T16:22:55.805Z,7.60
2017-11-09T16:25:23.434Z,7.50
2017-11-09T16:27:51.027Z,7.50
2017-11-09T16:30:18.626Z,7.50
2017-11-09T16:32:47.705Z,7.40
2017-11-09T16:35:26.077Z,7.30
2017-11-09T16:37:53.816Z,7.30
2017-11-09T16:40:32.938Z,7.20
2017-11-09T16:43:00.585Z,7.10
2017-11-09T16:45:31.100Z,7.00
2017-11-09T16:47:58.712Z,7.00
2017-11-09T16:50:38.574Z,7.00
2017-11-09T16:53:07.078Z,6.90
2017-11-09T16:55:35.748Z,6.90
2017-11-09T16:58:04.220Z,6.90
2017-11-09T17:00:45.180Z,6.90
2017-11-09T17:03:13.580Z,6.80
2017-11-09T17:05:44.158Z,6.80
2017-11-09T17:08:11.829Z,6.80
2017-11-09T17:10:39.438Z,6.70
2017-11-09T17:13:07.019Z,6.60
2017-11-09T17:15:34.650Z,6.60
2017-11-09T17:18:03.017Z,6.70
2017-11-09T17:20:31.406Z,6.70
2017-11-09T17:22:59.787Z,6.60
2017-11-09T17:25:28.156Z,6.50
2017-11-09T17:27:55.752Z,6.50
2017-11-09T17:30:23.349Z,6.40
2017-11-09T17:32:50.922Z,6.40
2017-11-09T17:35:18.729Z,6.60
2017-11-09T17:37:47.096Z,6.70
2017-11-09T17:40:18.299Z,6.80
2017-11-09T17:42:50.823Z,6.80
2017-11-09T17:45:21.074Z,6.90
2017-11-09T17:47:48.708Z,6.90
2017-11-09T17:50:17.071Z,7.00
2017-11-09T17:52:44.648Z,7.00
2017-11-09T17:55:13.020Z,7.20
2017-11-09T17:57:40.653Z,7.20
2017-11-09T18:00:14.445Z,7.30
2017-11-09T18:02:42.044Z,7.20
2017-11-09T18:05:10.522Z,7.10
2017-11-09T18:07:38.326Z,7.10
2017-11-09T18:10:05.963Z,7.00
2017-11-09T18:12:33.532Z,7.00
2017-11-09T18:15:01.119Z,7.10
2017-11-09T18:17:29.578Z,7.00
2017-11-09T18:19:58.191Z,7.00
2017-11-09T18:22:27.649Z,7.00
2017-11-09T18:24:55.272Z,6.90
2017-11-09T18:27:22.871Z,7.10
2017-11-09T18:29:50.500Z,7.10
2017-11-09T18:32:18.188Z,7.20
2017-11-09T18:34:45.775Z,7.10
2017-11-09T18:37:13.379Z,7.10
2017-11-09T18:39:40.983Z,7.10
2017-11-09T18:42:08.571Z,7.10
2017-11-09T18:44:36.227Z,7.10
2017-11-09T18:47:03.860Z,7.00
2017-11-09T18:49:31.474Z,7.00
2017-11-09T18:51:59.211Z,6.90
2017-11-09T18:54:26.843Z,6.80
2017-11-09T18:56:54.574Z,6.80
2017-11-09T18:59:23.797Z,6.80
2017-11-09T19:01:56.079Z,6.80
2017-11-09T19:04:23.737Z,6.90
2017-11-09T19:06:51.364Z,6.90
2017-11-09T19:09:19.527Z,6.90
2017-11-09T19:11:48.552Z,6.90
2017-11-09T19:14:16.947Z,6.90
2017-11-09T19:16:55.065Z,6.90
2017-11-09T19:19:22.736Z,6.90
2017-11-09T19:21:52.174Z,7.00
2017-11-09T19:24:20.587Z,7.10
2017-11-09T19:26:49.638Z,7.10
2017-11-09T19:29:28.804Z,7.10
2017-11-09T19:31:56.510Z,7.20
2017-11-09T19:34:24.152Z,7.20
2017-11-09T19:36:52.241Z,7.20
2017-11-09T19:39:19.847Z,7.20
2017-11-09T19:41:47.485Z,7.20
2017-11-09T19:44:15.076Z,7.20
2017-11-09T19:46:42.749Z,7.20
2017-11-09T19:49:10.352Z,7.20
2017-11-09T19:51:37.995Z,7.20
2017-11-09T19:54:06.371Z,7.30
2017-11-09T19:56:34.013Z,7.30
2017-11-09T19:59:01.613Z,7.30
2017-11-09T20:01:30.142Z,7.40
2017-11-09T20:04:02.816Z,7.40
2017-11-09T20:06:31.555Z,7.40
2017-11-09T20:09:02.689Z,7.40
2017-11-09T20:11:30.352Z,7.40
2017-11-09T20:13:58.941Z,7.40
2017-11-09T20:16:28.546Z,7.50
2017-11-09T20:18:56.254Z,7.50
2017-11-09T20:21:24.217Z,7.50
2017-11-09T20:23:51.845Z,7.50
2017-11-09T20:26:19.497Z,7.50
2017-11-09T20:28:47.332Z,7.60
2017-11-09T20:31:15.049Z,7.50
2017-11-09T20:33:42.744Z,7.50
2017-11-09T20:36:10.596Z,7.50
2017-11-09T20:38:38.492Z,7.60
2017-11-09T20:41:06.413Z,7.60
2017-11-09T20:43:34.121Z,7.50
2017-11-09T20:46:01.741Z,7.60
2017-11-09T20:48:30.635Z,7.60
2017-11-09T20:50:58.321Z,7.60
2017-11-09T20:53:41.569Z,7.70
2017-11-09T20:56:09.184Z,7.70
2017-11-09T20:58:36.793Z,7.60
2017-11-09T21:01:04.405Z,7.60
2017-11-09T21:03:32.158Z,7.70
2017-11-09T21:05:59.779Z,7.70
2017-11-09T21:08:27.369Z,7.70
2017-11-09T21:10:55.133Z,7.70
2017-11-09T21:13:22.734Z,7.70
2017-11-09T21:15:50.344Z,7.70
2017-11-09T21:18:18.036Z,7.80
2017-11-09T21:20:45.619Z,7.70
2017-11-09T21:23:13.428Z,7.70
2017-11-09T21:25:41.024Z,7.70
2017-11-09T21:28:08.658Z,7.70
2017-11-09T21:30:36.272Z,7.70
2017-11-09T21:33:03.877Z,7.80
2017-11-09T21:35:31.520Z,7.80
2017-11-09T21:37:59.898Z,7.70
2017-11-09T21:40:27.596Z,7.70
2017-11-09T21:42:55.233Z,7.80
2017-11-09T21:45:23.699Z,7.70
2017-11-09T21:47:51.292Z,7.70
2017-11-09T21:50:18.911Z,7.70
2017-11-09T21:52:46.506Z,7.70
2017-11-09T21:55:14.840Z,7.70
2017-11-09T21:57:42.447Z,7.70
2017-11-09T22:00:10.810Z,7.80
2017-11-09T22:02:38.451Z,7.80
2017-11-09T22:05:06.067Z,7.80
2017-11-09T22:07:33.744Z,7.70
2017-11-09T22:10:01.620Z,7.70
2017-11-09T22:12:29.263Z,7.70
2017-11-09T22:14:56.867Z,7.70
2017-11-09T22:17:24.488Z,7.70
2017-11-09T22:19:52.121Z,7.70
2017-11-09T22:22:20.558Z,7.70
2017-11-09T22:24:48.172Z,7.70
2017-11-09T22:27:15.971Z,7.60
2017-11-09T22:29:43.599Z,7.60
2017-11-09T22:32:11.267Z,7.60
2017-11-09T22:34:38.844Z,7.60
2017-11-09T22:37:06.435Z,7.60
2017-11-09T22:39:34.043Z,7.60
2017-11-09T22:42:01.652Z,7.50
2017-11-09T22:44:29.236Z,7.50
2017-11-09T22:46:57.616Z,7.60
2017-11-09T22:49:25.973Z,7.60
2017-11-09T22:51:53.639Z,7.60
2017-11-09T22:54:21.207Z,7.70
2017-11-09T22:56:48.905Z,7.70
2017-11-09T22:59:16.492Z,7.70
2017-11-09T23:01:44.123Z,7.70
2017-11-09T23:04:12.472Z,7.80
